Time;durP1;ratioP1;P1;durP2;ratioP2;P2;SDS_P1;SDS_P2;PMS_P1;PMS_P2;Temp;Humidity;BMP_temperature;BMP_pressure;BME280_temperature;BME280_humidity;BME280_pressure;Samples;Min_cycle;Max_cycle;Signal;HPM_P1;HPM_P2
2020/12/15 00:02:11;;;;;;;;;;;8.00;99.90;;;;;;5126798;28;19916;-84
2020/12/15 00:04:42;;;;;;;;;;;8.00;99.90;;;;;;5112563;28;20018;-84
2020/12/15 00:07:14;;;;;;;;;;;8.00;99.90;;;;;;5130230;28;20466;-84
2020/12/15 00:09:50;;;;;;;;;;;8.00;99.90;;;;;;5119619;28;20014;-85
2020/12/15 00:12:30;;;;;;;;;;;;;;;;;;;;;
2020/12/15 00:15:21;;;;;;;;;;;8.00;99.90;;;;;;5130392;28;19946;-85
2020/12/15 00:17:50;;;;;;;;;;;8.00;99.90;;;;;;5111878;28;20372;-84
2020/12/15 00:20:21;;;;;;;;;;;8.00;99.90;;;;;;5109510;28;19937;-85
2020/12/15 00:22:53;;;;;;;;;;;8.00;99.90;;;;;;5112321;28;20406;-84
2020/12/15 00:25:46;;;;;;;;;;;8.00;99.90;;;;;;5129182;28;20474;-84
2020/12/15 00:28:12;;;;;;;;;;;8.00;99.90;;;;;;5129332;28;19914;-84
2020/12/15 00:30:39;;;;;;;;;;;8.00;99.90;;;;;;5113656;28;20284;-85
2020/12/15 00:33:10;;;;;;;;;;;8.00;99.90;;;;;;5129931;27;20010;-85
2020/12/15 00:35:38;;;;;;;;;;;8.00;99.90;;;;;;5152003;27;20364;-85
2020/12/15 00:38:10;;;;;;;;;;;8.00;99.90;;;;;;5151053;27;20313;-84
2020/12/15 00:40:41;;;;;;;;;;;8.00;99.90;;;;;;5148137;27;20264;-84
2020/12/15 00:43:13;;;;;;;;;;;8.00;99.90;;;;;;5150851;27;20373;-85
2020/12/15 00:45:44;;;;;;;;;;;8.00;99.90;;;;;;5137303;27;19911;-85
2020/12/15 00:48:15;;;;;;;;;;;8.00;99.90;;;;;;5136666;27;19916;-85
2020/12/15 00:50:48;;;;;;;;;;;8.00;99.90;;;;;;5137014;27;19914;-84
2020/12/15 00:53:16;;;;;;;;;;;8.00;99.90;;;;;;5136282;27;19915;-84
2020/12/15 00:55:42;;;;;;;;;;;8.00;99.90;;;;;;5136507;27;19908;-84
2020/12/15 00:58:07;;;;;;;;;;;8.00;99.90;;;;;;5132159;27;20314;-84
2020/12/15 01:00:38;;;;;;;;;;;8.00;99.90;;;;;;5137554;27;19939;-84
2020/12/15 01:03:10;;;;;;;;;;;8.00;99.90;;;;;;5136449;27;19911;-84
2020/12/15 01:05:41;;;;;;;;;;;8.00;99.90;;;;;;5136188;27;20337;-85
2020/12/15 01:08:15;;;;;;;;;;;8.00;99.90;;;;;;5135863;27;20367;-84
2020/12/15 01:10:54;;;;;;;;;;;8.00;99.90;;;;;;5135836;27;19907;-85
2020/12/15 01:13:38;;;;;;;;;;;8.00;99.90;;;;;;5137209;27;19915;-84
2020/12/15 01:16:07;;;;;;;;;;;8.00;99.90;;;;;;5136090;27;19907;-85
2020/12/15 01:18:36;;;;;;;;;;;8.00;99.90;;;;;;5133418;27;19954;-85
2020/12/15 01:21:15;;;;;;;;;;;8.00;99.90;;;;;;5135163;27;19962;-84
2020/12/15 01:23:44;;;;;;;;;;;8.00;99.90;;;;;;5135987;27;19911;-85
2020/12/15 01:26:17;;;;;;;;;;;8.10;99.90;;;;;;5136961;27;19908;-85
2020/12/15 01:28:46;;;;;;;;;;;8.10;99.90;;;;;;5135759;27;19914;-85
2020/12/15 01:31:20;;;;;;;;;;;8.10;99.90;;;;;;5136301;27;19930;-85
2020/12/15 01:33:52;;;;;;;;;;;8.00;99.90;;;;;;5133919;27;20283;-85
2020/12/15 01:36:27;;;;;;;;;;;8.00;99.90;;;;;;5133644;27;20379;-85
2020/12/15 01:39:02;;;;;;;;;;;8.00;99.90;;;;;;5136184;27;19907;-84
2020/12/15 01:41:30;;;;;;;;;;;8.00;99.90;;;;;;5117543;27;20064;-85
2020/12/15 01:44:07;;;;;;;;;;;8.00;99.90;;;;;;5117355;27;19930;-85
2020/12/15 01:46:37;;;;;;;;;;;8.00;99.90;;;;;;5100916;27;19950;-85
2020/12/15 01:49:02;;;;;;;;;;;8.00;99.90;;;;;;5117865;27;20279;-85
2020/12/15 01:51:31;;;;;;;;;;;8.00;99.90;;;;;;5117207;27;19907;-85
2020/12/15 01:54:20;;;;;;;;;;;8.00;99.90;;;;;;5133126;27;19919;-85
2020/12/15 01:56:48;;;;;;;;;;;8.00;99.90;;;;;;5111051;27;19907;-85
2020/12/15 01:59:18;;;;;;;;;;;8.00;99.90;;;;;;5117307;27;19916;-85
2020/12/15 02:01:52;;;;;;;;;;;8.00;99.90;;;;;;5117040;27;19958;-84
2020/12/15 02:04:20;;;;;;;;;;;8.00;99.90;;;;;;5117394;27;20451;-84
2020/12/15 02:06:54;;;;;;;;;;;8.00;99.90;;;;;;5133957;27;19994;-85
2020/12/15 02:09:24;;;;;;;;;;;8.00;99.90;;;;;;5116739;27;19914;-84
2020/12/15 02:11:52;;;;;;;;;;;8.00;99.90;;;;;;5112905;27;19957;-85
2020/12/15 02:14:21;;;;;;;;;;;8.00;99.90;;;;;;5134752;27;19916;-85
2020/12/15 02:16:51;;;;;;;;;;;8.00;99.90;;;;;;5130287;27;19907;-84
2020/12/15 02:19:22;;;;;;;;;;;8.10;99.90;;;;;;5135201;27;19956;-85
2020/12/15 02:21:54;;;;;;;;;;;8.00;99.90;;;;;;5136102;27;19954;-85
2020/12/15 02:24:26;;;;;;;;;;;8.10;99.90;;;;;;5134536;27;19914;-84
2020/12/15 02:26:58;;;;;;;;;;;8.10;99.90;;;;;;5134566;27;19958;-85
2020/12/15 02:29:28;;;;;;;;;;;8.10;99.90;;;;;;5131582;27;19951;-85
2020/12/15 02:32:14;;;;;;;;;;;8.10;99.90;;;;;;5135681;27;19914;-85
2020/12/15 02:34:53;;;;;;;;;;;8.10;99.90;;;;;;5153046;27;19930;-84
2020/12/15 02:37:31;;;;;;;;;;;8.10;99.90;;;;;;5138376;27;20285;-85
2020/12/15 02:40:02;;;;;;;;;;;8.10;99.90;;;;;;5138330;27;19994;-85
2020/12/15 02:42:30;;;;;;;;;;;8.10;99.90;;;;;;5153371;27;20001;-85
2020/12/15 02:45:05;;;;;;;;;;;8.10;99.90;;;;;;5137256;27;20354;-84
2020/12/15 02:47:33;;;;;;;;;;;8.10;99.90;;;;;;5137400;27;19937;-85
2020/12/15 02:50:13;;;;;;;;;;;8.10;99.90;;;;;;5137532;27;20275;-84
2020/12/15 02:52:48;;;;;;;;;;;8.20;99.90;;;;;;5137247;27;19915;-85
2020/12/15 02:55:23;;;;;;;;;;;8.20;99.90;;;;;;5156008;27;20003;-85
2020/12/15 02:57:51;;;;;;;;;;;8.20;99.90;;;;;;5137438;27;19964;-85
2020/12/15 03:00:28;;;;;;;;;;;8.20;99.90;;;;;;5156633;27;20117;-85
2020/12/15 03:02:54;;;;;;;;;;;8.20;99.90;;;;;;5138435;27;20351;-84
2020/12/15 03:05:22;;;;;;;;;;;8.20;99.90;;;;;;5153810;27;20003;-84
2020/12/15 03:08:04;;;;;;;;;;;8.20;99.90;;;;;;5137832;27;19911;-85
2020/12/15 03:10:32;;;;;;;;;;;8.20;99.90;;;;;;5137277;27;19907;-85
2020/12/15 03:12:59;;;;;;;;;;;8.20;99.90;;;;;;5155751;27;20052;-85
2020/12/15 03:15:31;;;;;;;;;;;8.20;99.90;;;;;;5137324;27;20355;-85
2020/12/15 03:17:59;;;;;;;;;;;8.30;99.90;;;;;;5155788;27;20359;-85
2020/12/15 03:20:33;;;;;;;;;;;8.30;99.90;;;;;;5155341;27;19911;-85
2020/12/15 03:23:32;;;;;;;;;;;8.30;99.90;;;;;;5155905;27;19951;-84
2020/12/15 03:26:06;;;;;;;;;;;8.30;99.90;;;;;;5155776;27;20270;-85
2020/12/15 03:28:43;;;;;;;;;;;8.30;99.90;;;;;;5137019;27;19907;-85
2020/12/15 03:31:43;;;;;;;;;;;8.30;99.90;;;;;;5154859;27;19945;-85
2020/12/15 03:34:18;;;;;;;;;;;8.30;99.90;;;;;;5131347;28;19920;-85
2020/12/15 03:36:50;;;;;;;;;;;8.30;99.90;;;;;;5133649;28;20321;-84
2020/12/15 03:39:26;;;;;;;;;;;8.30;99.90;;;;;;5133787;28;20382;-84
2020/12/15 03:41:54;;;;;;;;;;;8.40;99.90;;;;;;5133654;27;19922;-85
2020/12/15 03:44:25;;;;;;;;;;;8.40;99.90;;;;;;5133759;28;20268;-84
2020/12/15 03:47:00;;;;;;;;;;;8.40;99.90;;;;;;5130847;28;19918;-84
2020/12/15 03:49:28;;;;;;;;;;;8.40;99.90;;;;;;5133219;28;19907;-85
2020/12/15 03:52:00;;;;;;;;;;;8.40;99.90;;;;;;5130797;28;19911;-84
2020/12/15 03:54:31;;;;;;;;;;;8.40;99.90;;;;;;5130805;28;19920;-84
2020/12/15 03:57:03;;;;;;;;;;;8.40;99.90;;;;;;5130894;28;19911;-85
2020/12/15 03:59:55;;;;;;;;;;;8.40;99.90;;;;;;5134357;28;19907;-84
2020/12/15 04:02:26;;;;;;;;;;;8.40;99.90;;;;;;5134380;28;19919;-85
2020/12/15 04:04:55;;;;;;;;;;;8.40;99.90;;;;;;5131420;28;19912;-84
2020/12/15 04:07:49;;;;;;;;;;;8.40;99.90;;;;;;5134337;28;20009;-84
2020/12/15 04:10:24;;;;;;;;;;;8.40;99.90;;;;;;5134538;28;19912;-85
2020/12/15 04:12:49;;;;;;;;;;;8.50;99.90;;;;;;5133505;28;19915;-85
2020/12/15 04:15:21;;;;;;;;;;;8.40;99.90;;;;;;5133363;28;19915;-84
2020/12/15 04:17:49;;;;;;;;;;;8.40;99.90;;;;;;5134655;27;19915;-85
2020/12/15 04:20:17;;;;;;;;;;;8.50;99.90;;;;;;5137238;27;19915;-84
2020/12/15 04:22:53;;;;;;;;;;;8.50;99.90;;;;;;5138456;27;19907;-85
2020/12/15 04:25:37;;;;;;;;;;;8.50;99.90;;;;;;5134754;27;19912;-84
2020/12/15 04:28:16;;;;;;;;;;;8.50;99.90;;;;;;5137416;27;19915;-84
2020/12/15 04:30:44;;;;;;;;;;;8.50;99.90;;;;;;5138114;27;20313;-84
2020/12/15 04:33:18;;;;;;;;;;;8.50;99.90;;;;;;5136775;27;19934;-84
2020/12/15 04:35:49;;;;;;;;;;;8.50;99.90;;;;;;5137060;27;19907;-84
2020/12/15 04:38:21;;;;;;;;;;;8.50;99.90;;;;;;5140407;27;19911;-84
2020/12/15 04:40:51;;;;;;;;;;;8.50;99.90;;;;;;5140221;27;19954;-84
2020/12/15 04:43:22;;;;;;;;;;;8.50;99.90;;;;;;5137608;27;19945;-84
2020/12/15 04:45:58;;;;;;;;;;;8.50;99.90;;;;;;5140057;27;19907;-84
2020/12/15 04:48:31;;;;;;;;;;;8.50;99.90;;;;;;5139792;27;19972;-84
2020/12/15 04:51:00;;;;;;;;;;;8.50;99.90;;;;;;5140436;27;19915;-84
2020/12/15 04:53:31;;;;;;;;;;;8.50;99.90;;;;;;5140064;27;19938;-84
2020/12/15 04:55:57;;;;;;;;;;;8.40;99.90;;;;;;5139359;27;19911;-84
2020/12/15 04:58:32;;;;;;;;;;;8.40;99.90;;;;;;5139472;27;19911;-84
2020/12/15 05:00:57;;;;;;;;;;;8.40;99.90;;;;;;5158832;27;19950;-84
2020/12/15 05:03:26;;;;;;;;;;;8.40;99.90;;;;;;5155039;27;19926;-84
2020/12/15 05:05:55;;;;;;;;;;;8.30;99.90;;;;;;5162347;27;19907;-84
2020/12/15 05:08:24;;;;;;;;;;;8.40;99.90;;;;;;5145368;27;19907;-85
2020/12/15 05:10:55;;;;;;;;;;;8.30;99.90;;;;;;5139549;27;19994;-84
2020/12/15 05:13:23;;;;;;;;;;;8.40;99.90;;;;;;5139718;27;20327;-83
2020/12/15 05:15:54;;;;;;;;;;;8.40;99.90;;;;;;5153056;27;20003;-83
2020/12/15 05:18:26;;;;;;;;;;;8.40;99.90;;;;;;5157959;27;20002;-83
2020/12/15 05:21:32;;;;;;;;;;;8.40;99.90;;;;;;5156221;27;19907;-84
2020/12/15 05:24:10;;;;;;;;;;;8.30;99.90;;;;;;5158381;27;19907;-84
2020/12/15 05:26:44;;;;;;;;;;;8.20;99.90;;;;;;5139694;27;20363;-84
2020/12/15 05:29:17;;;;;;;;;;;8.20;99.90;;;;;;5157941;27;19947;-84
2020/12/15 05:31:43;;;;;;;;;;;8.20;99.90;;;;;;5138805;27;19962;-84
2020/12/15 05:34:37;;;;;;;;;;;8.20;99.90;;;;;;5157625;27;19923;-84
2020/12/15 05:37:08;;;;;;;;;;;8.20;99.90;;;;;;5136812;27;19911;-84
2020/12/15 05:39:40;;;;;;;;;;;8.20;99.90;;;;;;5157927;27;19907;-84
2020/12/15 05:42:09;;;;;;;;;;;8.10;99.90;;;;;;5139289;27;20275;-84
2020/12/15 05:44:43;;;;;;;;;;;8.10;99.90;;;;;;5139266;27;19911;-84
2020/12/15 05:47:14;;;;;;;;;;;8.20;99.90;;;;;;5158011;27;19957;-84
2020/12/15 05:49:55;;;;;;;;;;;8.10;99.90;;;;;;5136794;27;19912;-84
2020/12/15 05:52:25;;;;;;;;;;;8.10;99.90;;;;;;5136788;27;20359;-84
2020/12/15 05:55:14;;;;;;;;;;;8.10;99.90;;;;;;5133958;27;20228;-84
2020/12/15 05:57:49;;;;;;;;;;;8.10;99.90;;;;;;5157577;27;19907;-84
2020/12/15 06:00:23;;;;;;;;;;;8.10;99.90;;;;;;5076356;28;19916;-84
2020/12/15 06:03:06;;;;;;;;;;;8.10;99.90;;;;;;5076261;28;20055;-85
2020/12/15 06:05:32;;;;;;;;;;;8.10;99.90;;;;;;5076397;28;19908;-85
2020/12/15 06:08:02;;;;;;;;;;;8.20;99.90;;;;;;5091815;28;20345;-84
2020/12/15 06:10:33;;;;;;;;;;;8.20;99.90;;;;;;5073678;28;19912;-84
2020/12/15 06:13:05;;;;;;;;;;;8.20;99.90;;;;;;5093081;28;19912;-85
2020/12/15 06:15:33;;;;;;;;;;;8.20;99.90;;;;;;5076150;28;20303;-84
2020/12/15 06:18:06;;;;;;;;;;;8.20;99.90;;;;;;5076120;28;19908;-84
2020/12/15 06:20:37;;;;;;;;;;;8.20;99.90;;;;;;5093350;28;20338;-84
2020/12/15 06:23:10;;;;;;;;;;;8.20;99.90;;;;;;5076043;28;20280;-85
2020/12/15 06:25:47;;;;;;;;;;;8.20;99.90;;;;;;5076113;28;19954;-84
2020/12/15 06:28:14;;;;;;;;;;;8.10;99.90;;;;;;5074906;28;21402;-84
2020/12/15 06:30:48;;;;;;;;;;;8.20;99.90;;;;;;5092681;27;20386;-85
2020/12/15 06:33:20;;;;;;;;;;;8.10;99.90;;;;;;5123698;27;19973;-85
2020/12/15 06:35:50;;;;;;;;;;;8.10;99.90;;;;;;5113070;28;19947;-85
2020/12/15 06:38:32;;;;;;;;;;;8.10;99.90;;;;;;5133053;27;19911;-84
2020/12/15 06:41:21;;;;;;;;;;;8.10;99.90;;;;;;5134464;27;19907;-86
2020/12/15 06:43:52;;;;;;;;;;;8.10;99.90;;;;;;5126762;27;20328;-84
2020/12/15 06:46:29;;;;;;;;;;;8.10;99.90;;;;;;5125096;27;19915;-85
2020/12/15 06:49:09;;;;;;;;;;;8.20;99.90;;;;;;5120614;27;19912;-85
2020/12/15 06:51:38;;;;;;;;;;;8.10;99.90;;;;;;5134439;27;19916;-84
2020/12/15 06:54:06;;;;;;;;;;;8.10;99.90;;;;;;5134501;27;19916;-84
2020/12/15 06:56:35;;;;;;;;;;;8.10;99.90;;;;;;5135479;27;20356;-85
2020/12/15 06:59:06;;;;;;;;;;;8.10;99.90;;;;;;5133901;27;19911;-85
2020/12/15 07:01:47;;;;;;;;;;;8.20;99.90;;;;;;5135124;27;20283;-84
2020/12/15 07:04:26;;;;;;;;;;;8.10;99.90;;;;;;5134051;27;20319;-84
2020/12/15 07:07:08;;;;;;;;;;;8.10;99.90;;;;;;5131196;27;19917;-85
2020/12/15 07:09:35;;;;;;;;;;;8.20;99.90;;;;;;5131980;27;19917;-85
2020/12/15 07:12:24;;;;;;;;;;;8.20;99.90;;;;;;5133713;27;19915;-83
2020/12/15 07:14:58;;;;;;;;;;;8.10;99.90;;;;;;5133520;27;19963;-85
2020/12/15 07:17:27;;;;;;;;;;;8.20;99.90;;;;;;5134019;27;19950;-84
2020/12/15 07:19:58;;;;;;;;;;;8.20;99.90;;;;;;5134587;27;20005;-84
2020/12/15 07:22:34;;;;;;;;;;;8.20;99.90;;;;;;5118046;27;20393;-86
2020/12/15 07:25:10;;;;;;;;;;;8.20;99.90;;;;;;5131333;27;19950;-86
2020/12/15 07:27:38;;;;;;;;;;;8.20;99.90;;;;;;5133918;27;19908;-86
2020/12/15 07:30:16;;;;;;;;;;;8.20;99.90;;;;;;5130350;27;19919;-84
2020/12/15 07:32:48;;;;;;;;;;;8.20;99.90;;;;;;5131010;28;20412;-85
2020/12/15 07:35:18;;;;;;;;;;;8.20;99.90;;;;;;5133149;28;19926;-85
2020/12/15 07:37:49;;;;;;;;;;;8.20;99.90;;;;;;5133307;27;19939;-85
2020/12/15 07:40:24;;;;;;;;;;;8.20;99.90;;;;;;5123473;28;19980;-84
2020/12/15 07:42:57;;;;;;;;;;;8.30;99.90;;;;;;5126723;28;20398;-84
2020/12/15 07:45:39;;;;;;;;;;;8.30;99.90;;;;;;5123620;28;19908;-85
2020/12/15 07:48:08;;;;;;;;;;;8.30;99.90;;;;;;5128435;28;19920;-85
2020/12/15 07:50:39;;;;;;;;;;;8.30;99.90;;;;;;5127213;28;19914;-86
2020/12/15 07:53:16;;;;;;;;;;;8.30;99.90;;;;;;5112312;28;19923;-85
2020/12/15 07:55:45;;;;;;;;;;;8.30;99.90;;;;;;5116538;28;19994;-84
2020/12/15 07:58:20;;;;;;;;;;;8.30;99.90;;;;;;5120780;27;20010;-85
2020/12/15 08:00:57;;;;;;;;;;;8.30;99.90;;;;;;5133585;27;19914;-85
2020/12/15 08:03:28;;;;;;;;;;;8.30;99.90;;;;;;5137598;27;19915;-86
2020/12/15 08:06:06;;;;;;;;;;;8.30;99.90;;;;;;5137936;27;19911;-85
2020/12/15 08:08:48;;;;;;;;;;;8.30;99.90;;;;;;5134042;27;20462;-85
2020/12/15 08:11:23;;;;;;;;;;;8.30;99.90;;;;;;5123529;27;19973;-84
2020/12/15 08:14:15;;;;;;;;;;;8.30;99.90;;;;;;5113635;27;19972;-86
2020/12/15 08:17:12;;;;;;;;;;;8.30;99.90;;;;;;5117826;28;19908;-85
2020/12/15 08:19:42;;;;;;;;;;;8.40;99.90;;;;;;5116323;28;19953;-85
2020/12/15 08:22:22;;;;;;;;;;;8.40;99.90;;;;;;5116150;28;19908;-84
2020/12/15 08:25:04;;;;;;;;;;;8.40;99.90;;;;;;5116596;28;20446;-84
2020/12/15 08:27:34;;;;;;;;;;;8.40;99.90;;;;;;5116417;28;20318;-83
2020/12/15 08:30:16;;;;;;;;;;;8.50;99.90;;;;;;5118055;27;19943;-83
2020/12/15 08:32:50;;;;;;;;;;;8.50;99.90;;;;;;5131171;27;19915;-84
2020/12/15 08:35:29;;;;;;;;;;;8.50;99.90;;;;;;5128123;27;20277;-84
2020/12/15 08:38:02;;;;;;;;;;;8.50;99.90;;;;;;5134030;27;19998;-84
2020/12/15 08:40:32;;;;;;;;;;;8.50;99.90;;;;;;5123438;27;20295;-84
2020/12/15 08:43:03;;;;;;;;;;;8.50;99.90;;;;;;5119715;27;19915;-85
2020/12/15 08:45:42;;;;;;;;;;;8.60;99.90;;;;;;5119379;27;20387;-85
2020/12/15 08:48:17;;;;;;;;;;;8.60;99.90;;;;;;5119578;27;19915;-85
2020/12/15 08:50:50;;;;;;;;;;;8.60;99.90;;;;;;5118261;27;20285;-86
2020/12/15 08:53:21;;;;;;;;;;;8.60;99.90;;;;;;5119594;27;20287;-86
2020/12/15 08:55:51;;;;;;;;;;;8.60;99.90;;;;;;5120095;27;19916;-85
2020/12/15 08:58:29;;;;;;;;;;;8.70;99.90;;;;;;5127541;27;19911;-86
2020/12/15 09:01:04;;;;;;;;;;;8.70;99.90;;;;;;5139975;27;19998;-85
2020/12/15 09:03:35;;;;;;;;;;;8.70;99.90;;;;;;5158026;27;19915;-85
2020/12/15 09:06:04;;;;;;;;;;;8.70;99.90;;;;;;5138315;27;20302;-85
2020/12/15 09:08:38;;;;;;;;;;;8.70;99.90;;;;;;5148256;27;20367;-85
2020/12/15 09:11:17;;;;;;;;;;;8.80;99.90;;;;;;5142038;27;19937;-85
2020/12/15 09:13:58;;;;;;;;;;;8.80;99.90;;;;;;5133276;27;20445;-85
2020/12/15 09:16:39;;;;;;;;;;;8.80;99.90;;;;;;5145896;27;19955;-85
2020/12/15 09:19:29;;;;;;;;;;;8.90;99.90;;;;;;5123901;27;19934;-84
2020/12/15 09:22:01;;;;;;;;;;;8.90;99.90;;;;;;5119241;27;19915;-85
2020/12/15 09:24:27;;;;;;;;;;;9.00;99.90;;;;;;5118856;27;19921;-85
2020/12/15 09:26:59;;;;;;;;;;;9.00;99.90;;;;;;5134323;27;19915;-85
2020/12/15 09:29:31;;;;;;;;;;;9.10;99.90;;;;;;5137095;27;19907;-85
2020/12/15 09:32:07;;;;;;;;;;;9.10;99.90;;;;;;5136989;27;19907;-85
2020/12/15 09:34:35;;;;;;;;;;;9.10;99.90;;;;;;5116333;27;19924;-85
2020/12/15 09:37:06;;;;;;;;;;;9.10;99.90;;;;;;5114098;27;19956;-85
2020/12/15 09:39:45;;;;;;;;;;;9.20;99.90;;;;;;5118862;27;19999;-85
2020/12/15 09:42:11;;;;;;;;;;;9.20;99.90;;;;;;5137046;27;19907;-85
2020/12/15 09:44:40;;;;;;;;;;;9.20;99.90;;;;;;5115343;27;19918;-85
2020/12/15 09:47:05;;;;;;;;;;;9.30;99.90;;;;;;5115595;27;19915;-85
2020/12/15 09:49:35;;;;;;;;;;;9.30;99.90;;;;;;5131177;27;19933;-85
2020/12/15 09:52:09;;;;;;;;;;;9.30;99.90;;;;;;5119099;27;19907;-85
2020/12/15 09:54:35;;;;;;;;;;;9.30;99.90;;;;;;5115545;27;19923;-85
2020/12/15 09:57:06;;;;;;;;;;;9.30;99.90;;;;;;5113012;27;19908;-84
2020/12/15 09:59:40;;;;;;;;;;;9.30;99.90;;;;;;5118085;27;19908;-84
2020/12/15 10:02:08;;;;;;;;;;;9.30;99.90;;;;;;5135782;27;20257;-84
2020/12/15 10:04:40;;;;;;;;;;;9.40;99.90;;;;;;5117967;27;19908;-85
2020/12/15 10:07:11;;;;;;;;;;;9.40;99.90;;;;;;5118139;27;20344;-84
2020/12/15 10:09:49;;;;;;;;;;;9.40;99.90;;;;;;5135275;27;19908;-84
2020/12/15 10:12:19;;;;;;;;;;;9.40;99.90;;;;;;5117896;27;19915;-85
2020/12/15 10:14:53;;;;;;;;;;;9.40;99.90;;;;;;5136234;27;19925;-85
2020/12/15 10:17:22;;;;;;;;;;;9.40;99.90;;;;;;5128630;27;20381;-85
2020/12/15 10:19:55;;;;;;;;;;;9.50;99.90;;;;;;5136014;27;19960;-85
2020/12/15 10:22:31;;;;;;;;;;;9.40;99.90;;;;;;5117336;27;20378;-85
2020/12/15 10:25:05;;;;;;;;;;;9.50;99.90;;;;;;5132091;27;19991;-85
2020/12/15 10:27:37;;;;;;;;;;;9.50;99.90;;;;;;5117490;27;19918;-85
2020/12/15 10:30:11;;;;;;;;;;;9.50;99.90;;;;;;5117535;27;19907;-85
2020/12/15 10:32:36;;;;;;;;;;;9.50;99.90;;;;;;5117377;27;19960;-85
2020/12/15 10:35:12;;;;;;;;;;;9.50;99.90;;;;;;5135408;27;19920;-85
2020/12/15 10:37:43;;;;;;;;;;;9.50;99.90;;;;;;5117054;27;19907;-84
2020/12/15 10:40:13;;;;;;;;;;;9.60;99.90;;;;;;5117471;27;19947;-85
2020/12/15 10:42:41;;;;;;;;;;;9.60;99.90;;;;;;5113980;27;19912;-85
2020/12/15 10:45:09;;;;;;;;;;;9.60;99.90;;;;;;5112673;27;19969;-84
2020/12/15 10:47:37;;;;;;;;;;;9.60;99.90;;;;;;5135561;27;19912;-84
2020/12/15 10:50:09;;;;;;;;;;;9.60;99.90;;;;;;5135005;27;19908;-85
2020/12/15 10:52:40;;;;;;;;;;;9.70;99.90;;;;;;5137380;27;20384;-85
2020/12/15 10:55:10;;;;;;;;;;;9.70;99.90;;;;;;5156403;27;19972;-85
2020/12/15 10:57:41;;;;;;;;;;;9.60;99.90;;;;;;5155832;27;19907;-85
2020/12/15 11:00:12;;;;;;;;;;;9.60;99.90;;;;;;5140172;27;19907;-85
2020/12/15 11:02:42;;;;;;;;;;;9.60;99.90;;;;;;5145283;27;19946;-84
2020/12/15 11:05:11;;;;;;;;;;;9.60;99.90;;;;;;5156870;27;19943;-85
2020/12/15 11:07:45;;;;;;;;;;;9.60;99.90;;;;;;5126189;27;19911;-85
2020/12/15 11:10:14;;;;;;;;;;;9.70;99.90;;;;;;5126268;27;19971;-86
2020/12/15 11:12:46;;;;;;;;;;;9.70;99.90;;;;;;5136170;27;19919;-85
2020/12/15 11:15:11;;;;;;;;;;;9.70;99.90;;;;;;5145819;27;20002;-85
2020/12/15 11:17:43;;;;;;;;;;;9.70;99.90;;;;;;5147201;27;19954;-84
2020/12/15 11:20:25;;;;;;;;;;;9.70;99.90;;;;;;5145195;27;20256;-84
2020/12/15 11:23:00;;;;;;;;;;;9.60;99.90;;;;;;5135912;27;19907;-84
2020/12/15 11:25:28;;;;;;;;;;;9.60;99.90;;;;;;5122858;27;20376;-85
2020/12/15 11:28:02;;;;;;;;;;;9.60;99.90;;;;;;5137086;27;19933;-85
2020/12/15 11:30:36;;;;;;;;;;;9.60;99.90;;;;;;5116168;27;19911;-86
2020/12/15 11:33:08;;;;;;;;;;;9.70;99.90;;;;;;5116421;28;20295;-87
2020/12/15 11:35:48;;;;;;;;;;;9.70;99.90;;;;;;5116296;28;19931;-86
2020/12/15 11:38:15;;;;;;;;;;;9.70;99.90;;;;;;5116770;28;20367;-86
2020/12/15 11:40:48;;;;;;;;;;;9.70;99.90;;;;;;5116568;28;19908;-86
2020/12/15 11:43:25;;;;;;;;;;;9.70;99.90;;;;;;5135042;28;19914;-86
2020/12/15 11:45:50;;;;;;;;;;;9.80;99.90;;;;;;5112133;28;20264;-86
2020/12/15 11:48:21;;;;;;;;;;;9.80;99.90;;;;;;5116178;28;19908;-86
2020/12/15 11:50:50;;;;;;;;;;;9.80;99.90;;;;;;5134666;28;19907;-86
2020/12/15 11:53:18;;;;;;;;;;;9.80;99.90;;;;;;5113341;28;19919;-85
2020/12/15 11:55:44;;;;;;;;;;;9.80;99.90;;;;;;5134629;28;19952;-86
2020/12/15 11:58:12;;;;;;;;;;;9.80;99.90;;;;;;5111419;28;20313;-84
2020/12/15 12:01:01;;;;;;;;;;;9.80;99.90;;;;;;5132748;28;20288;-84
2020/12/15 12:03:32;;;;;;;;;;;9.80;99.90;;;;;;5116356;28;19948;-83
2020/12/15 12:06:05;;;;;;;;;;;9.80;99.90;;;;;;5116369;28;19911;-84
2020/12/15 12:08:37;;;;;;;;;;;9.80;99.90;;;;;;5126368;27;20010;-84
2020/12/15 12:11:13;;;;;;;;;;;9.80;99.90;;;;;;5142140;27;19916;-84
2020/12/15 12:13:48;;;;;;;;;;;9.80;99.90;;;;;;5126665;27;20000;-84
2020/12/15 12:16:19;;;;;;;;;;;9.80;99.90;;;;;;5128092;27;19911;-84
2020/12/15 12:18:52;;;;;;;;;;;9.80;99.90;;;;;;5142585;27;19919;-84
2020/12/15 12:21:22;;;;;;;;;;;9.80;99.90;;;;;;5121372;27;19967;-85
2020/12/15 12:23:58;;;;;;;;;;;9.80;99.90;;;;;;5126130;27;20292;-84
2020/12/15 12:26:32;;;;;;;;;;;9.80;99.90;;;;;;5129097;27;19911;-85
2020/12/15 12:28:59;;;;;;;;;;;9.80;99.90;;;;;;5136543;27;19907;-84
2020/12/15 12:31:28;;;;;;;;;;;9.90;99.90;;;;;;5155166;27;19907;-84
2020/12/15 12:33:56;;;;;;;;;;;9.90;99.90;;;;;;5136078;27;19963;-84
2020/12/15 12:36:29;;;;;;;;;;;9.90;99.90;;;;;;5130778;27;19910;-85
2020/12/15 12:38:57;;;;;;;;;;;9.90;99.90;;;;;;5136457;27;19950;-84
2020/12/15 12:41:31;;;;;;;;;;;9.90;99.90;;;;;;5157583;27;19907;-84
2020/12/15 12:44:02;;;;;;;;;;;9.90;99.90;;;;;;5158728;27;20290;-85
2020/12/15 12:46:33;;;;;;;;;;;9.90;99.90;;;;;;5144192;27;19911;-85
2020/12/15 12:49:02;;;;;;;;;;;9.90;99.90;;;;;;5129768;27;19918;-85
2020/12/15 12:51:37;;;;;;;;;;;9.90;99.90;;;;;;5137115;27;19915;-84
2020/12/15 12:54:11;;;;;;;;;;;9.90;99.90;;;;;;5135416;27;19950;-84
2020/12/15 12:56:45;;;;;;;;;;;9.90;99.90;;;;;;5139952;27;19915;-84
2020/12/15 12:59:14;;;;;;;;;;;9.90;99.90;;;;;;5129596;27;19915;-84
2020/12/15 13:01:48;;;;;;;;;;;9.90;99.90;;;;;;5140061;27;19911;-85
2020/12/15 13:04:16;;;;;;;;;;;9.90;99.90;;;;;;5155765;27;19911;-86
2020/12/15 13:06:53;;;;;;;;;;;9.90;99.90;;;;;;5153039;27;19907;-86
2020/12/15 13:09:22;;;;;;;;;;;10.00;99.90;;;;;;5133444;27;19915;-86
2020/12/15 13:11:58;;;;;;;;;;;10.00;99.90;;;;;;5157794;27;20401;-84
2020/12/15 13:14:26;;;;;;;;;;;10.00;99.90;;;;;;5154134;27;19915;-85
2020/12/15 13:17:02;;;;;;;;;;;10.00;99.90;;;;;;5157886;27;19949;-85
2020/12/15 13:19:34;;;;;;;;;;;10.00;99.90;;;;;;5136791;27;20367;-85
2020/12/15 13:22:08;;;;;;;;;;;10.00;99.90;;;;;;5140229;27;19918;-85
2020/12/15 13:24:42;;;;;;;;;;;10.00;99.90;;;;;;5115631;27;20010;-85
2020/12/15 13:27:19;;;;;;;;;;;10.00;99.90;;;;;;5073770;28;20333;-85
2020/12/15 13:29:52;;;;;;;;;;;10.00;99.90;;;;;;5077167;28;19923;-85
2020/12/15 13:32:27;;;;;;;;;;;10.00;99.90;;;;;;5084474;28;19908;-85
2020/12/15 13:34:55;;;;;;;;;;;10.00;99.90;;;;;;5085181;28;19920;-84
2020/12/15 13:37:23;;;;;;;;;;;10.00;99.90;;;;;;5081434;28;19908;-85
2020/12/15 13:39:49;;;;;;;;;;;10.10;99.90;;;;;;5081592;28;19917;-84
2020/12/15 13:42:21;;;;;;;;;;;10.10;99.90;;;;;;5076377;28;19916;-85
2020/12/15 13:44:55;;;;;;;;;;;10.10;99.90;;;;;;5076768;28;19935;-84
2020/12/15 13:47:30;;;;;;;;;;;10.10;99.90;;;;;;5076133;28;19908;-84
2020/12/15 13:50:01;;;;;;;;;;;10.10;99.90;;;;;;5076204;28;19998;-84
2020/12/15 13:52:33;;;;;;;;;;;10.00;99.90;;;;;;5071071;28;19954;-85
2020/12/15 13:55:01;;;;;;;;;;;10.00;99.90;;;;;;5075782;28;20059;-85
2020/12/15 13:57:33;;;;;;;;;;;10.00;99.90;;;;;;5087226;27;20352;-84
2020/12/15 14:00:01;;;;;;;;;;;10.00;99.90;;;;;;5117648;27;19907;-85
2020/12/15 14:02:35;;;;;;;;;;;10.00;99.90;;;;;;5117847;27;19908;-84
2020/12/15 14:05:04;;;;;;;;;;;10.00;99.90;;;;;;5133034;27;20352;-84
2020/12/15 14:07:39;;;;;;;;;;;10.00;99.90;;;;;;5135736;27;20261;-84
2020/12/15 14:13:05;;;;;;;;;;;10.00;99.90;;;;;;5136144;27;20018;-85
2020/12/15 14:15:40;;;;;;;;;;;10.00;99.90;;;;;;5117757;27;19908;-84
2020/12/15 14:18:12;;;;;;;;;;;10.00;99.90;;;;;;5117837;27;19912;-84
2020/12/15 14:20:38;;;;;;;;;;;10.00;99.90;;;;;;5115247;27;19912;-84
2020/12/15 14:23:13;;;;;;;;;;;10.00;99.90;;;;;;5075337;28;19920;-86
2020/12/15 14:25:42;;;;;;;;;;;10.00;99.90;;;;;;5069141;28;19958;-85
2020/12/15 14:28:11;;;;;;;;;;;10.00;99.90;;;;;;5080101;28;19916;-85
2020/12/15 14:30:42;;;;;;;;;;;10.00;99.90;;;;;;5078666;28;19916;-84
2020/12/15 14:33:11;;;;;;;;;;;9.90;99.90;;;;;;5066142;28;20008;-85
2020/12/15 14:35:36;;;;;;;;;;;10.00;99.90;;;;;;5062020;28;19925;-85
2020/12/15 14:38:02;;;;;;;;;;;10.00;99.90;;;;;;5073089;28;20258;-85
2020/12/15 14:40:31;;;;;;;;;;;10.00;99.90;;;;;;5084567;28;20451;-84
2020/12/15 14:42:59;;;;;;;;;;;10.00;99.90;;;;;;5083339;28;19912;-84
2020/12/15 14:45:46;;;;;;;;;;;10.00;99.90;;;;;;5071961;28;19931;-85
2020/12/15 14:48:26;;;;;;;;;;;10.00;99.90;;;;;;5091234;28;20026;-85
2020/12/15 14:50:52;;;;;;;;;;;10.00;99.90;;;;;;5072443;28;19919;-85
2020/12/15 14:53:29;;;;;;;;;;;10.00;99.90;;;;;;5079951;27;19916;-85
2020/12/15 14:56:15;;;;;;;;;;;10.00;99.90;;;;;;5116519;27;19935;-83
2020/12/15 14:58:41;;;;;;;;;;;10.10;99.90;;;;;;5130515;27;20306;-84
2020/12/15 15:01:29;;;;;;;;;;;10.10;99.90;;;;;;5144431;27;19907;-84
2020/12/15 15:04:00;;;;;;;;;;;10.10;99.90;;;;;;5116025;27;19921;-84
2020/12/15 15:06:28;;;;;;;;;;;10.10;99.90;;;;;;5124592;27;20010;-84